POGODA: Poland

Lotnisko: Katowice-Pyrzowice

METAR KOD: EPKT


METAR: EPKT 030630Z 04006KT 6000 SCT004 BKN005 14/13 Q1021


BLOK
Pogoda METAR
030630Z
Dzien: 03, Godzina: 06:30 UTC.
04006KT
Wiatr z kierunku 040, o predkosci 11 km/h
6000
Widzialnosc pozioma 6000 m.
SCT004
3/8 - 4/8 pokrycia nieba, chmurami o podstawie: 120 metrow
BKN005
5/8 - 7/8 pokrycia nieba, chmurami o podstawie: 150 metrow
14/13
Temperatura: powietrze 14°C, punkt rosy 13°C . Wilgotnosc wzgledna 93 %
Q1021
Cisnienie: 1021 hPa

Pogoda na innym lotnisku

Pogoda Gdansk-Rebiechowo WEATHER Poland  
Pogoda Katowice WEATHER Poland  
Pogoda Krakow WEATHER Poland  
Pogoda Poznan WEATHER Poland  
Pogoda Rzeszow-Jasionka WEATHER Poland  
Pogoda Szczecin WEATHER Poland  
Pogoda Warszawa-Okecie WEATHER Poland  
Pogoda Wroclaw Ii WEATHER Poland  

Pogoda w inny kraju

Strona startowa

(C) by GREGOR 2007
Ogłoszenia Towarzyskie